Time;durP1;ratioP1;P1;durP2;ratioP2;P2;SDS_P1;SDS_P2;PMS_P1;PMS_P2;Temp;Humidity;BMP_temperature;BMP_pressure;BME280_temperature;BME280_humidity;BME280_pressure;Samples;Min_cycle;Max_cycle;Signal;HPM_P1;HPM_P2
2021/11/10 00:02:14;;;;;;;29.83;12.17;;;7.80;99.90;;;;;;5067597;28;20160;-63
2021/11/10 00:04:40;;;;;;;30.40;12.07;;;7.60;99.90;;;;;;5067709;28;20247;-63
2021/11/10 00:07:07;;;;;;;28.63;11.20;;;7.60;99.90;;;;;;5067705;28;20207;-63
2021/11/10 00:09:32;;;;;;;24.83;10.40;;;7.50;99.90;;;;;;5067372;28;20192;-63
2021/11/10 00:11:58;;;;;;;33.60;11.30;;;7.50;99.90;;;;;;5066792;28;20169;-63
2021/11/10 00:14:24;;;;;;;27.17;10.33;;;7.50;99.90;;;;;;5067615;28;20168;-63
2021/11/10 00:16:52;;;;;;;34.70;10.87;;;7.50;99.90;;;;;;5067420;28;20165;-63
2021/11/10 00:19:18;;;;;;;25.93;10.67;;;7.40;99.90;;;;;;5067386;28;20211;-63
2021/11/10 00:21:44;;;;;;;23.37;9.60;;;7.50;99.90;;;;;;5067107;28;20634;-63
2021/11/10 00:24:10;;;;;;;25.87;10.30;;;7.50;99.90;;;;;;5067350;28;20161;-63
2021/11/10 00:26:36;;;;;;;25.27;9.60;;;7.50;99.90;;;;;;5067102;28;20173;-63
2021/11/10 00:29:02;;;;;;;26.70;10.50;;;7.40;99.90;;;;;;5067295;28;20252;-64
2021/11/10 00:31:28;;;;;;;26.93;10.70;;;7.40;99.90;;;;;;5066955;28;20226;-63
2021/11/10 00:33:54;;;;;;;25.53;10.87;;;7.30;99.90;;;;;;5067052;28;20165;-63
2021/11/10 00:36:19;;;;;;;28.03;11.23;;;7.30;99.90;;;;;;5067107;28;20177;-64
2021/11/10 00:38:45;;;;;;;24.77;11.37;;;7.20;99.90;;;;;;5066956;28;20185;-64
2021/11/10 00:41:11;;;;;;;25.23;11.40;;;7.10;99.90;;;;;;5066691;28;20173;-63
2021/11/10 00:43:37;;;;;;;25.57;11.60;;;7.10;99.90;;;;;;5067013;28;20168;-63
2021/11/10 00:46:03;;;;;;;26.60;12.30;;;7.10;99.90;;;;;;5066811;28;20274;-63
2021/11/10 00:48:28;;;;;;;27.57;12.07;;;7.10;99.90;;;;;;5066992;28;20168;-63
2021/11/10 00:50:54;;;;;;;34.23;12.23;;;7.00;99.90;;;;;;5066519;28;20200;-63
2021/11/10 00:53:20;;;;;;;27.00;11.87;;;7.00;99.90;;;;;;5066938;28;20291;-63
2021/11/10 00:55:46;;;;;;;32.77;13.27;;;7.00;99.90;;;;;;5066540;28;20554;-64
2021/11/10 00:58:12;;;;;;;22.40;12.07;;;7.00;99.90;;;;;;5066763;28;20188;-63
2021/11/10 01:00:39;;;;;;;26.83;12.10;;;7.00;99.90;;;;;;5066577;28;20176;-63
2021/11/10 01:03:06;;;;;;;26.37;11.50;;;7.00;99.90;;;;;;5065697;28;20160;-63
2021/11/10 01:05:34;;;;;;;26.67;11.70;;;7.00;99.90;;;;;;5066586;28;20191;-63
2021/11/10 01:08:00;;;;;;;26.23;11.37;;;7.00;99.90;;;;;;5066571;28;20180;-63
2021/11/10 01:10:27;;;;;;;21.43;11.10;;;7.00;99.90;;;;;;5066342;28;20630;-63
2021/11/10 01:12:53;;;;;;;24.10;11.83;;;7.00;99.90;;;;;;5066210;28;20213;-63
2021/11/10 01:15:19;;;;;;;24.80;10.83;;;6.90;99.90;;;;;;5066571;28;20228;-64
2021/11/10 01:17:45;;;;;;;23.27;11.00;;;6.90;99.90;;;;;;5066464;28;20169;-63
2021/11/10 01:20:12;;;;;;;24.83;12.47;;;6.80;99.90;;;;;;5066429;28;20157;-63
2021/11/10 01:22:39;;;;;;;28.87;11.80;;;6.80;99.90;;;;;;5066239;28;20165;-63
2021/11/10 01:25:06;;;;;;;24.47;11.40;;;6.80;99.90;;;;;;5066157;28;20160;-63
2021/11/10 01:27:33;;;;;;;23.43;10.83;;;6.80;99.90;;;;;;5065110;28;20236;-63
2021/11/10 01:29:58;;;;;;;21.10;10.73;;;6.80;99.90;;;;;;5065989;28;20220;-63
2021/11/10 01:32:24;;;;;;;19.63;10.27;;;6.80;99.90;;;;;;5066121;28;20190;-63
2021/11/10 01:34:50;;;;;;;23.43;11.37;;;6.70;99.90;;;;;;5066155;28;20176;-63
2021/11/10 01:37:16;;;;;;;24.00;11.63;;;6.60;99.90;;;;;;5064829;28;20173;-63
2021/11/10 01:39:42;;;;;;;30.67;11.90;;;6.50;99.90;;;;;;5065862;28;20616;-63
2021/11/10 01:42:09;;;;;;;34.60;12.73;;;6.40;99.90;;;;;;5065728;28;20641;-63
2021/11/10 01:44:37;;;;;;;31.23;11.70;;;6.50;99.90;;;;;;5066222;28;20196;-64
2021/11/10 01:47:08;;;;;;;18.77;11.00;;;6.40;99.90;;;;;;5066020;28;20188;-63
2021/11/10 01:49:36;;;;;;;35.43;12.70;;;6.40;99.90;;;;;;5066197;28;20153;-63
2021/11/10 01:52:03;;;;;;;27.30;12.77;;;6.50;99.90;;;;;;5065970;28;20232;-63
2021/11/10 01:54:31;;;;;;;28.23;12.30;;;6.50;99.90;;;;;;5066177;28;20241;-63
2021/11/10 01:56:58;;;;;;;23.53;11.43;;;6.50;99.90;;;;;;5065860;28;20557;-63
2021/11/10 01:59:44;;;;;;;20.10;11.87;;;6.50;99.90;;;;;;5064606;28;20228;-63
2021/11/10 02:02:23;;;;;;;21.30;12.67;;;6.50;99.90;;;;;;5065814;28;20183;-63
2021/11/10 02:04:50;;;;;;;22.00;12.13;;;6.40;99.90;;;;;;5066085;28;20173;-63
2021/11/10 02:07:17;;;;;;;19.60;11.83;;;6.40;99.90;;;;;;5065857;28;20161;-63
2021/11/10 02:09:44;;;;;;;26.70;11.37;;;6.30;99.90;;;;;;5064565;28;20175;-63
2021/11/10 02:12:11;;;;;;;22.23;11.73;;;6.30;99.90;;;;;;5065254;28;20224;-63
2021/11/10 02:14:38;;;;;;;21.63;12.23;;;6.30;99.90;;;;;;5065717;28;20168;-64
2021/11/10 02:17:05;;;;;;;26.43;12.10;;;6.20;99.90;;;;;;5069801;28;20172;-63
2021/11/10 02:19:32;;;;;;;28.47;12.20;;;6.20;99.90;;;;;;5069784;28;20193;-63
2021/11/10 02:21:58;;;;;;;19.63;11.00;;;6.20;99.90;;;;;;5069420;28;20168;-63
2021/11/10 02:24:28;;;;;;;21.63;11.70;;;6.10;99.90;;;;;;5069656;28;20161;-63
2021/11/10 02:26:54;;;;;;;25.23;12.63;;;6.10;99.90;;;;;;5069115;28;20177;-63
2021/11/10 02:29:25;;;;;;;21.37;11.27;;;6.10;99.90;;;;;;5069797;28;20295;-63
2021/11/10 02:31:52;;;;;;;27.97;12.00;;;6.20;99.90;;;;;;5069361;28;20171;-63
2021/11/10 02:34:18;;;;;;;29.33;12.03;;;6.30;99.90;;;;;;5069424;28;20536;-63
2021/11/10 02:36:44;;;;;;;21.00;12.17;;;6.20;99.90;;;;;;5069283;28;20169;-63
2021/11/10 02:39:21;;;;;;;24.83;12.67;;;6.20;99.90;;;;;;5069423;28;20252;-63
2021/11/10 02:41:48;;;;;;;25.23;11.43;;;6.10;99.90;;;;;;5069070;28;20306;-63
2021/11/10 02:44:16;;;;;;;21.33;11.37;;;6.10;99.90;;;;;;5069439;28;20176;-63
2021/11/10 02:46:43;;;;;;;28.00;12.90;;;6.20;99.90;;;;;;5069234;28;20160;-63
2021/11/10 02:49:10;;;;;;;24.87;12.53;;;6.30;99.90;;;;;;5069273;28;20222;-63
2021/11/10 02:51:36;;;;;;;27.73;12.47;;;6.30;99.90;;;;;;5068791;28;20192;-64
2021/11/10 02:54:02;;;;;;;25.90;12.87;;;6.20;99.90;;;;;;5069101;28;20179;-63
2021/11/10 02:56:27;;;;;;;25.03;12.60;;;6.10;99.90;;;;;;5068732;28;20179;-63
2021/11/10 02:58:53;;;;;;;24.37;11.93;;;6.00;99.90;;;;;;5068950;28;20223;-63
2021/11/10 03:01:20;;;;;;;33.83;12.83;;;6.00;99.90;;;;;;5068673;28;20188;-63
2021/11/10 03:03:45;;;;;;;22.30;12.43;;;6.00;99.90;;;;;;5068849;28;20161;-63
2021/11/10 03:06:12;;;;;;;27.10;11.27;;;6.10;99.90;;;;;;5068755;28;20165;-63
2021/11/10 03:08:41;;;;;;;30.10;15.20;;;6.50;99.90;;;;;;5067691;28;20416;-63
2021/11/10 03:11:06;;;;;;;33.77;13.90;;;7.00;99.90;;;;;;5068452;28;20203;-63
2021/11/10 03:13:33;;;;;;;30.43;13.40;;;7.30;99.90;;;;;;5068491;28;20212;-63
2021/11/10 03:15:58;;;;;;;27.47;12.40;;;6.80;99.90;;;;;;5068584;28;20161;-63
2021/11/10 03:18:24;;;;;;;28.27;12.93;;;6.50;99.90;;;;;;5068698;28;20238;-63
2021/11/10 03:20:49;;;;;;;32.47;13.57;;;6.30;99.90;;;;;;5068404;28;20250;-63
2021/11/10 03:23:15;;;;;;;28.27;12.87;;;6.10;99.90;;;;;;5068554;28;20165;-63
2021/11/10 03:25:41;;;;;;;30.03;12.30;;;6.00;99.90;;;;;;5067587;28;20171;-63
2021/11/10 03:28:06;;;;;;;20.73;11.83;;;5.90;99.90;;;;;;5068272;28;20183;-63
2021/11/10 03:30:32;;;;;;;25.00;10.67;;;5.80;99.90;;;;;;5068240;28;20183;-63
2021/11/10 03:32:58;;;;;;;29.93;11.43;;;5.80;99.90;;;;;;5068305;28;20177;-63
2021/11/10 03:35:24;;;;;;;20.17;11.73;;;5.90;99.90;;;;;;5068295;28;20168;-63
2021/11/10 03:37:51;;;;;;;32.30;11.53;;;5.90;99.90;;;;;;5068236;28;20175;-63
2021/11/10 03:40:17;;;;;;;24.63;11.03;;;5.80;99.90;;;;;;5067950;28;20172;-63
2021/11/10 03:42:43;;;;;;;20.20;10.90;;;5.80;99.90;;;;;;5068126;28;20169;-63
2021/11/10 03:45:10;;;;;;;18.57;10.23;;;5.70;99.90;;;;;;5068161;28;20175;-63
2021/11/10 03:47:37;;;;;;;18.47;10.33;;;5.70;99.90;;;;;;5067982;28;20165;-63
2021/11/10 03:50:04;;;;;;;16.10;10.50;;;5.70;99.90;;;;;;5068154;28;20160;-63
2021/11/10 03:52:30;;;;;;;18.30;10.57;;;5.70;99.90;;;;;;5067833;28;20267;-63
2021/11/10 03:54:55;;;;;;;14.07;9.53;;;5.70;99.90;;;;;;5067928;28;20164;-63
2021/11/10 03:57:21;;;;;;;22.77;10.30;;;5.70;99.90;;;;;;5067684;28;20216;-63
2021/11/10 03:59:47;;;;;;;21.57;9.80;;;5.70;99.90;;;;;;5067760;28;20689;-63
2021/11/10 04:02:13;;;;;;;17.37;10.23;;;5.70;99.90;;;;;;5067609;28;20172;-63
2021/11/10 04:04:38;;;;;;;23.63;9.67;;;5.70;99.90;;;;;;5067782;28;20180;-63
2021/11/10 04:07:05;;;;;;;17.77;9.93;;;5.70;99.90;;;;;;5067861;28;20157;-63
2021/11/10 04:09:31;;;;;;;24.00;10.23;;;5.70;99.90;;;;;;5067679;28;20161;-63
2021/11/10 04:11:57;;;;;;;22.10;10.10;;;5.70;99.90;;;;;;5066971;28;20227;-63
2021/11/10 04:14:23;;;;;;;20.63;10.60;;;5.80;99.90;;;;;;5067674;28;20165;-63
2021/11/10 04:16:49;;;;;;;20.00;10.50;;;5.80;99.90;;;;;;5067515;28;20223;-63
2021/11/10 04:19:14;;;;;;;19.67;10.07;;;5.70;99.90;;;;;;5067510;28;20204;-63
2021/11/10 04:21:40;;;;;;;22.60;9.93;;;5.70;99.90;;;;;;5067147;28;20175;-63
2021/11/10 04:24:06;;;;;;;23.20;9.97;;;5.70;99.90;;;;;;5067395;28;20528;-63
2021/11/10 04:26:40;;;;;;;15.50;10.20;;;5.80;99.90;;;;;;5066844;28;20168;-63
2021/11/10 04:29:07;;;;;;;20.10;9.27;;;5.70;99.90;;;;;;5067410;28;20170;-63
2021/11/10 04:31:33;;;;;;;16.50;9.95;;;5.70;99.90;;;;;;5066370;28;20418;-63
2021/11/10 04:33:59;;;;;;;18.90;10.07;;;5.80;99.90;;;;;;5067043;28;20169;-63
2021/11/10 04:36:28;;;;;;;20.43;10.00;;;5.70;99.90;;;;;;5067075;28;20240;-63
2021/11/10 04:38:54;;;;;;;16.53;9.67;;;5.70;99.90;;;;;;5066975;28;20192;-63
2021/11/10 04:41:20;;;;;;;22.53;11.67;;;5.60;99.90;;;;;;5065748;28;20408;-63
2021/11/10 04:43:46;;;;;;;17.50;10.47;;;5.80;99.90;;;;;;5067052;28;20622;-63
2021/11/10 04:46:20;;;;;;;19.47;10.53;;;5.80;99.90;;;;;;5067064;28;20168;-63
2021/11/10 04:48:46;;;;;;;22.97;10.30;;;5.70;99.90;;;;;;5067061;28;20178;-63
2021/11/10 04:51:12;;;;;;;19.33;10.43;;;5.70;99.90;;;;;;5066607;28;20200;-64
2021/11/10 04:53:42;;;;;;;21.83;10.37;;;5.70;99.90;;;;;;5066944;28;20218;-63
2021/11/10 04:56:08;;;;;;;18.07;10.27;;;5.70;99.90;;;;;;5066580;28;20219;-63
2021/11/10 04:58:34;;;;;;;18.20;10.17;;;5.60;99.90;;;;;;5067035;28;20184;-63
2021/11/10 05:01:00;;;;;;;26.53;11.23;;;5.60;99.90;;;;;;5065131;28;20195;-63
2021/11/10 05:03:26;;;;;;;16.57;10.60;;;5.60;99.90;;;;;;5066352;28;20219;-63
2021/11/10 05:05:52;;;;;;;28.63;11.70;;;5.60;99.90;;;;;;5066590;28;20165;-63
2021/11/10 05:08:17;;;;;;;24.03;10.97;;;5.60;99.90;;;;;;5066754;28;20250;-63
2021/11/10 05:10:43;;;;;;;20.53;11.17;;;5.60;99.90;;;;;;5064989;28;20173;-63
2021/11/10 05:13:09;;;;;;;16.57;10.87;;;5.60;99.90;;;;;;5066135;28;20551;-63
2021/11/10 05:15:34;;;;;;;24.27;11.23;;;5.60;99.90;;;;;;5066540;28;20161;-63
2021/11/10 05:18:00;;;;;;;19.47;10.93;;;5.50;99.90;;;;;;5066144;28;20222;-63
2021/11/10 05:20:26;;;;;;;22.10;11.13;;;5.50;99.90;;;;;;5066613;28;20190;-63
2021/11/10 05:22:52;;;;;;;27.97;11.17;;;5.50;99.90;;;;;;5066188;28;20173;-63
2021/11/10 05:25:18;;;;;;;18.70;11.13;;;5.50;99.90;;;;;;5066026;28;20180;-63
2021/11/10 05:27:44;;;;;;;20.93;11.07;;;5.50;99.90;;;;;;5066200;28;20165;-63
2021/11/10 05:30:12;;;;;;;26.13;11.90;;;5.40;99.90;;;;;;5066220;28;20161;-63
2021/11/10 05:32:38;;;;;;;23.53;11.90;;;5.40;99.90;;;;;;5065893;28;20169;-63
2021/11/10 05:35:05;;;;;;;19.33;11.33;;;5.40;99.90;;;;;;5066351;28;20161;-63
2021/11/10 05:37:31;;;;;;;18.93;11.90;;;5.40;99.90;;;;;;5066038;28;20191;-63
2021/11/10 05:39:57;;;;;;;25.30;13.33;;;5.40;99.90;;;;;;5066187;28;20219;-63
2021/11/10 05:42:27;;;;;;;29.83;14.00;;;5.60;99.90;;;;;;5065084;28;20173;-63
2021/11/10 05:44:54;;;;;;;34.70;14.87;;;5.80;99.90;;;;;;5066291;28;20164;-63
2021/11/10 05:47:21;;;;;;;31.80;15.30;;;5.80;99.90;;;;;;5066095;28;20162;-63
2021/11/10 05:49:47;;;;;;;22.80;12.50;;;5.80;99.90;;;;;;5067768;28;20188;-63
2021/11/10 05:52:12;;;;;;;37.77;15.27;;;5.80;99.90;;;;;;5069819;28;20211;-63
2021/11/10 05:54:39;;;;;;;39.20;14.83;;;5.90;99.90;;;;;;5068879;28;20160;-63
2021/11/10 05:57:06;;;;;;;29.97;13.33;;;5.80;99.90;;;;;;5069770;28;20189;-63
2021/11/10 05:59:33;;;;;;;27.37;11.63;;;5.90;99.90;;;;;;5070116;28;20196;-63
2021/11/10 06:02:00;;;;;;;19.27;11.17;;;5.80;99.90;;;;;;5069674;28;20622;-63
2021/11/10 06:04:26;;;;;;;18.87;11.17;;;5.60;99.90;;;;;;5068533;28;20171;-63
2021/11/10 06:06:52;;;;;;;24.83;10.87;;;5.60;99.90;;;;;;5069729;28;20156;-65
2021/11/10 06:09:18;;;;;;;22.30;12.30;;;5.50;99.90;;;;;;5068869;28;20431;-65
2021/11/10 06:11:45;;;;;;;23.10;12.57;;;5.70;99.90;;;;;;5068894;28;20169;-65
2021/11/10 06:14:11;;;;;;;37.33;14.20;;;5.70;99.90;;;;;;5069637;28;20164;-65
2021/11/10 06:16:37;;;;;;;36.90;13.97;;;6.00;99.90;;;;;;5069708;28;20165;-65
2021/11/10 06:19:03;;;;;;;32.73;15.53;;;5.90;99.90;;;;;;5069122;28;20479;-65
2021/11/10 06:21:29;;;;;;;25.07;13.93;;;6.00;99.90;;;;;;5069312;28;20169;-65
2021/11/10 06:23:54;;;;;;;25.80;13.83;;;5.90;99.90;;;;;;5069628;28;20169;-65
2021/11/10 06:26:20;;;;;;;32.27;14.67;;;5.90;99.90;;;;;;5069092;28;20175;-65
2021/11/10 06:28:46;;;;;;;34.77;13.40;;;6.00;99.90;;;;;;5067852;28;20169;-65
2021/11/10 06:31:12;;;;;;;27.17;13.30;;;5.90;99.90;;;;;;5069052;28;20172;-65
2021/11/10 06:33:37;;;;;;;26.73;13.67;;;5.90;99.90;;;;;;5069131;28;20161;-65
2021/11/10 06:36:03;;;;;;;34.20;16.10;;;5.80;99.90;;;;;;5069183;28;20161;-65
2021/11/10 06:38:30;;;;;;;41.27;20.77;;;5.80;99.90;;;;;;5068735;28;20219;-65
2021/11/10 06:40:55;;;;;;;32.17;15.80;;;6.30;99.90;;;;;;5068578;28;20168;-64
2021/11/10 06:43:21;;;;;;;39.60;15.80;;;6.70;99.90;;;;;;5067789;28;20157;-64
2021/11/10 06:45:47;;;;;;;32.17;16.10;;;6.80;99.90;;;;;;5068702;28;20537;-65
2021/11/10 06:48:13;;;;;;;41.87;16.60;;;6.50;99.90;;;;;;5068878;28;20181;-65
2021/11/10 06:50:40;;;;;;;35.17;15.97;;;6.00;99.90;;;;;;5068734;28;20191;-64
2021/11/10 06:53:06;;;;;;;34.17;15.57;;;5.70;99.90;;;;;;5068883;28;20250;-65
2021/11/10 06:55:32;;;;;;;43.30;16.83;;;5.80;99.90;;;;;;5068546;28;20188;-64
2021/11/10 06:57:58;;;;;;;34.80;16.67;;;5.80;99.90;;;;;;5068961;28;20149;-65
2021/11/10 07:00:23;;;;;;;36.50;16.27;;;6.10;99.90;;;;;;5068268;28;20189;-65
2021/11/10 07:02:49;;;;;;;34.27;17.10;;;6.40;99.90;;;;;;5067888;28;20191;-64
2021/11/10 07:05:15;;;;;;;31.73;17.33;;;6.40;99.90;;;;;;5068998;28;20161;-64
2021/11/10 07:07:40;;;;;;;39.47;17.10;;;6.40;99.90;;;;;;5068767;28;20160;-65
2021/11/10 07:10:06;;;;;;;33.50;16.37;;;6.30;99.90;;;;;;5068836;28;20169;-65
2021/11/10 07:12:33;;;;;;;32.30;16.20;;;6.40;99.90;;;;;;5068088;28;20208;-64
2021/11/10 07:14:58;;;;;;;32.93;15.83;;;6.30;99.90;;;;;;5067481;28;20164;-65
2021/11/10 07:17:24;;;;;;;34.80;16.00;;;6.30;99.90;;;;;;5068420;28;20167;-65
2021/11/10 07:19:53;;;;;;;31.37;15.53;;;6.20;99.90;;;;;;5068531;28;20192;-65
2021/11/10 07:22:20;;;;;;;29.87;15.63;;;6.20;99.90;;;;;;5068282;28;20156;-65
2021/11/10 07:24:46;;;;;;;37.47;15.90;;;6.20;99.90;;;;;;5068660;28;20167;-65
2021/11/10 07:27:12;;;;;;;28.33;14.80;;;6.20;99.90;;;;;;5068093;28;20160;-65
2021/11/10 07:29:38;;;;;;;30.30;15.23;;;6.20;99.90;;;;;;5068363;28;20168;-65
2021/11/10 07:32:04;;;;;;;36.70;15.70;;;6.20;99.90;;;;;;5067994;28;20172;-65
2021/11/10 07:34:30;;;;;;;34.90;14.63;;;6.40;99.90;;;;;;5068337;28;20216;-65
2021/11/10 07:36:55;;;;;;;33.73;14.97;;;6.30;99.90;;;;;;5068018;28;20160;-65
2021/11/10 07:39:21;;;;;;;34.73;14.87;;;6.40;99.90;;;;;;5068173;28;20223;-65
2021/11/10 07:41:49;;;;;;;24.07;13.73;;;6.30;99.90;;;;;;5067454;28;20180;-65
2021/11/10 07:44:14;;;;;;;27.73;14.00;;;6.30;99.90;;;;;;5068262;28;20169;-65
2021/11/10 07:46:50;;;;;;;27.80;13.73;;;6.40;99.90;;;;;;5067904;28;20222;-65
2021/11/10 07:49:20;;;;;;;24.67;13.90;;;6.50;99.90;;;;;;5068192;28;20167;-66
2021/11/10 07:51:46;;;;;;;27.40;14.40;;;6.60;99.90;;;;;;5067844;28;20240;-65
2021/11/10 07:54:12;;;;;;;30.23;14.33;;;6.60;99.90;;;;;;5068084;28;20175;-65
2021/11/10 07:56:38;;;;;;;23.40;12.17;;;6.60;99.90;;;;;;5067571;28;20195;-65
2021/11/10 07:59:04;;;;;;;24.80;13.27;;;6.70;99.90;;;;;;5067744;28;20238;-65
2021/11/10 08:01:30;;;;;;;22.93;12.80;;;6.90;99.90;;;;;;5067279;28;20203;-65
2021/11/10 08:04:02;;;;;;;25.20;12.60;;;6.80;99.90;;;;;;5067697;28;20157;-65
2021/11/10 08:06:28;;;;;;;29.50;13.10;;;6.70;99.90;;;;;;5067641;28;20145;-65
2021/11/10 08:08:53;;;;;;;26.43;12.40;;;6.80;99.90;;;;;;5067583;28;20224;-65
2021/11/10 08:11:19;;;;;;;21.60;12.37;;;7.00;99.90;;;;;;5067004;28;20177;-65
2021/11/10 08:13:45;;;;;;;34.93;13.27;;;6.90;99.90;;;;;;5067080;28;20263;-65
2021/11/10 08:16:10;;;;;;;25.37;13.30;;;6.80;99.90;;;;;;5067581;28;20169;-65
2021/11/10 08:18:36;;;;;;;22.23;13.23;;;6.90;99.90;;;;;;5067409;28;20193;-65
2021/11/10 08:21:02;;;;;;;30.87;13.97;;;7.10;99.90;;;;;;5067118;28;20165;-65
2021/11/10 08:23:27;;;;;;;26.13;13.30;;;7.00;99.90;;;;;;5067078;28;20176;-66
2021/11/10 08:25:57;;;;;;;23.57;13.53;;;6.90;99.90;;;;;;5067036;28;20168;-65
2021/11/10 08:28:24;;;;;;;27.63;12.83;;;6.80;99.90;;;;;;5067492;28;20165;-65
2021/11/10 08:30:51;;;;;;;29.00;14.10;;;6.80;99.90;;;;;;5066709;28;20259;-64
2021/11/10 08:33:18;;;;;;;25.50;12.63;;;6.90;99.90;;;;;;5067099;28;20256;-65
2021/11/10 08:35:44;;;;;;;28.67;13.10;;;7.00;99.90;;;;;;5067088;28;20169;-65
2021/11/10 08:38:10;;;;;;;28.03;13.70;;;7.20;99.90;;;;;;5066918;28;20223;-66
2021/11/10 08:40:37;;;;;;;27.20;12.47;;;7.20;99.90;;;;;;5065884;28;20173;-65
2021/11/10 08:43:03;;;;;;;20.20;11.33;;;7.60;99.90;;;;;;5066725;28;20164;-64
2021/11/10 08:45:32;;;;;;;26.57;12.37;;;7.70;99.90;;;;;;5067001;28;20161;-64
2021/11/10 08:47:58;;;;;;;22.17;13.27;;;7.60;99.90;;;;;;5066829;28;20527;-64
2021/11/10 08:50:26;;;;;;;20.67;12.50;;;7.50;99.90;;;;;;5066937;28;20172;-64
2021/11/10 08:52:53;;;;;;;30.33;12.70;;;7.40;99.90;;;;;;5066228;28;20165;-64
2021/11/10 08:55:19;;;;;;;24.80;13.33;;;7.40;99.90;;;;;;5066693;28;20193;-64
2021/11/10 08:57:46;;;;;;;27.97;14.20;;;7.30;99.90;;;;;;5066846;28;20169;-65
2021/11/10 09:00:16;;;;;;;26.47;14.03;;;7.20;99.90;;;;;;5066457;28;20198;-64
2021/11/10 09:02:42;;;;;;;30.17;13.23;;;7.40;99.90;;;;;;5066284;28;20208;-65
2021/11/10 09:05:08;;;;;;;24.10;13.27;;;7.30;99.90;;;;;;5066754;28;20160;-65
2021/11/10 09:07:34;;;;;;;23.33;13.10;;;7.50;99.90;;;;;;5066254;28;20167;-64
2021/11/10 09:10:00;;;;;;;32.00;13.87;;;7.50;99.90;;;;;;5066553;28;20176;-65
2021/11/10 09:12:27;;;;;;;23.83;13.77;;;7.50;99.90;;;;;;5065766;28;20219;-64
2021/11/10 09:14:52;;;;;;;26.80;13.93;;;7.80;99.90;;;;;;5066584;28;20161;-64
2021/11/10 09:17:18;;;;;;;26.00;14.83;;;7.80;99.90;;;;;;5066646;28;20191;-64
2021/11/10 09:19:44;;;;;;;23.90;14.10;;;7.90;99.90;;;;;;5066465;28;20211;-64
2021/11/10 09:22:10;;;;;;;29.47;13.57;;;8.10;99.90;;;;;;5066090;28;20172;-64
2021/11/10 09:24:37;;;;;;;24.90;13.60;;;7.90;99.90;;;;;;5064383;28;20179;-64
2021/11/10 09:27:04;;;;;;;23.87;13.43;;;8.00;99.90;;;;;;5066027;28;20200;-64
2021/11/10 09:29:30;;;;;;;25.37;14.20;;;7.90;99.90;;;;;;5066280;28;20184;-64
2021/11/10 09:31:56;;;;;;;27.23;13.93;;;8.00;99.90;;;;;;5065994;28;20173;-64
2021/11/10 09:34:22;;;;;;;26.00;13.33;;;8.00;99.90;;;;;;5065021;28;20187;-64
2021/11/10 09:36:48;;;;;;;25.03;13.47;;;8.00;99.90;;;;;;5066223;28;20165;-65
2021/11/10 09:39:15;;;;;;;26.83;13.40;;;8.00;99.90;;;;;;5066310;28;20185;-64
2021/11/10 09:41:45;;;;;;;30.33;13.63;;;8.10;99.90;;;;;;5065705;28;20168;-64
2021/11/10 09:44:11;;;;;;;27.30;13.20;;;8.00;99.90;;;;;;5066092;28;20526;-64
2021/11/10 09:46:38;;;;;;;90.47;19.83;;;8.00;99.90;;;;;;5066017;28;20171;-64
2021/11/10 09:49:05;;;;;;;25.43;14.13;;;8.30;99.90;;;;;;5066166;28;20228;-64
2021/11/10 09:51:31;;;;;;;26.13;13.33;;;8.40;99.90;;;;;;5066005;28;20157;-64
2021/11/10 09:53:58;;;;;;;84.10;19.10;;;8.30;99.90;;;;;;5066052;28;20629;-65
2021/11/10 09:56:24;;;;;;;45.07;14.80;;;8.50;99.90;;;;;;5065528;28;20177;-64
2021/11/10 09:58:51;;;;;;;39.93;14.67;;;8.70;99.90;;;;;;5064727;28;20184;-64
2021/11/10 10:01:18;;;;;;;29.23;14.60;;;8.70;99.90;;;;;;5065662;28;20220;-64
2021/11/10 10:03:46;;;;;;;25.37;13.67;;;8.80;99.90;;;;;;5065844;28;20240;-65
2021/11/10 10:06:14;;;;;;;24.07;13.77;;;8.70;99.90;;;;;;5065980;28;20160;-64
2021/11/10 10:08:42;;;;;;;25.70;13.20;;;9.00;99.90;;;;;;5065808;28;20211;-64
2021/11/10 10:11:07;;;;;;;28.93;14.47;;;8.70;99.90;;;;;;5065512;28;20196;-65
2021/11/10 10:13:33;;;;;;;31.70;14.13;;;8.60;99.90;;;;;;5065487;28;20220;-64
2021/11/10 10:15:59;;;;;;;67.20;17.20;;;8.60;99.90;;;;;;5065812;28;20642;-64
2021/11/10 10:18:29;;;;;;;20.47;12.83;;;9.00;99.90;;;;;;5065766;28;20199;-65
2021/11/10 10:21:00;;;;;;;30.47;15.00;;;9.10;99.90;;;;;;5065644;28;20183;-65
2021/11/10 10:23:31;;;;;;;26.20;14.63;;;9.20;99.90;;;;;;5065567;28;20170;-64
2021/11/10 10:26:03;;;;;;;32.00;13.57;;;9.10;99.90;;;;;;5065265;28;20169;-64
2021/11/10 10:28:35;;;;;;;25.67;12.83;;;9.00;99.90;;;;;;5065671;28;20223;-65
2021/11/10 10:31:09;;;;;;;28.37;14.10;;;9.10;99.90;;;;;;5065357;28;20165;-64
2021/11/10 10:33:42;;;;;;;25.57;13.73;;;9.20;99.90;;;;;;5065535;28;20173;-65
2021/11/10 10:36:15;;;;;;;27.87;14.33;;;9.20;99.90;;;;;;5067450;28;20157;-65
2021/11/10 10:38:42;;;;;;;29.10;14.17;;;9.30;99.90;;;;;;5069100;28;20657;-65
2021/11/10 10:41:10;;;;;;;27.30;13.97;;;9.50;99.90;;;;;;5068771;28;20165;-64
2021/11/10 10:43:46;;;;;;;26.03;14.37;;;9.90;99.90;;;;;;5068822;28;20161;-64
2021/11/10 10:46:13;;;;;;;26.50;14.47;;;10.00;99.90;;;;;;5069140;28;20149;-65
2021/11/10 10:48:39;;;;;;;26.77;14.40;;;10.10;99.90;;;;;;5067842;28;20214;-64
2021/11/10 10:51:12;;;;;;;27.30;14.93;;;10.10;99.90;;;;;;5068888;28;20232;-65
2021/11/10 10:53:43;;;;;;;28.13;14.63;;;10.30;99.90;;;;;;5069008;28;20226;-64
2021/11/10 10:56:28;;;;;;;21.13;13.60;;;10.60;99.90;;;;;;5068628;28;20263;-64
2021/11/10 10:58:59;;;;;;;25.33;13.93;;;10.50;99.90;;;;;;5067606;28;20584;-65
2021/11/10 11:01:26;;;;;;;28.03;13.53;;;10.40;99.90;;;;;;5068458;28;20161;-64
2021/11/10 11:04:14;;;;;;;25.23;13.47;;;10.40;99.90;;;;;;5068801;28;20165;-64
2021/11/10 11:06:42;;;;;;;27.13;12.70;;;10.50;99.90;;;;;;5068929;28;20150;-64
2021/11/10 11:09:14;;;;;;;35.30;14.13;;;10.80;99.90;;;;;;5068831;28;20165;-64
2021/11/10 11:11:50;;;;;;;19.63;12.30;;;10.50;99.90;;;;;;5068079;28;20184;-65
2021/11/10 11:17:25;;;;;;;27.30;13.10;;;10.60;99.90;;;;;;5068470;28;20176;-65
2021/11/10 11:20:01;;;;;;;20.02;12.25;;;10.70;99.90;;;;;;5067761;28;20280;-65
2021/11/10 11:22:30;;;;;;;26.00;11.83;;;10.80;99.90;;;;;;5067960;28;20628;-65
2021/11/10 11:24:57;;;;;;;24.38;12.75;;;10.70;99.90;;;;;;5068617;28;20153;-65
2021/11/10 11:27:30;;;;;;;22.88;12.25;;;10.60;99.90;;;;;;5068330;28;20165;-64
2021/11/10 11:30:05;;;;;;;24.53;13.47;;;10.60;99.90;;;;;;5068131;28;20520;-65
2021/11/10 11:32:40;;;;;;;24.57;13.43;;;11.00;99.90;;;;;;5067842;28;20227;-64
2021/11/10 11:35:33;;;;;;;28.80;14.05;;;11.10;99.90;;;;;;5068308;28;20160;-64
2021/11/10 11:38:01;;;;;;;40.40;16.83;;;11.00;99.90;;;;;;5065759;28;20530;-65
2021/11/10 11:40:27;;;;;;;36.07;17.10;;;10.90;99.90;;;;;;5068260;28;20165;-64
2021/11/10 11:42:57;;;;;;;31.67;15.60;;;11.00;99.90;;;;;;5067631;28;20176;-65
2021/11/10 11:45:25;;;;;;;34.13;15.87;;;11.30;99.90;;;;;;5067795;28;20152;-64
2021/11/10 11:47:55;;;;;;;34.57;17.50;;;11.30;99.90;;;;;;5067155;28;20165;-65
2021/11/10 11:50:22;;;;;;;40.13;18.20;;;11.30;99.90;;;;;;5068128;28;20156;-65
2021/11/10 11:52:50;;;;;;;40.05;17.92;;;11.50;99.90;;;;;;5067793;28;20186;-64
2021/11/10 11:55:49;;;;;;;32.05;16.38;;;11.60;99.90;;;;;;5066653;28;20634;-65
2021/11/10 11:58:18;;;;;;;36.15;15.77;;;11.60;99.90;;;;;;5067982;28;20222;-65
2021/11/10 12:00:53;;;;;;;30.02;15.52;;;11.80;99.90;;;;;;5067934;28;20160;-65
2021/11/10 12:03:33;;;;;;;35.10;16.55;;;12.00;99.90;;;;;;5067563;28;20586;-65
2021/11/10 12:06:01;;;;;;;28.33;13.80;;;12.00;99.90;;;;;;5067873;28;20153;-65
2021/11/10 12:08:48;;;;;;;32.20;14.27;;;12.20;99.90;;;;;;5067613;28;20195;-65
2021/11/10 12:11:20;;;;;;;26.63;13.70;;;12.30;99.90;;;;;;5066961;28;20176;-64
2021/11/10 12:14:11;;;;;;;26.73;12.95;;;11.90;99.90;;;;;;5067043;28;20212;-65
2021/11/10 12:16:59;;;;;;;34.78;14.30;;;11.70;99.90;;;;;;5064079;28;20185;-64
2021/11/10 12:19:33;;;;;;;29.38;13.48;;;11.90;99.90;;;;;;5067365;28;20234;-65
2021/11/10 12:22:11;;;;;;;30.42;13.65;;;12.10;99.90;;;;;;5067171;28;20180;-65
2021/11/10 12:24:40;;;;;;;23.05;12.98;;;12.30;99.90;;;;;;5066353;28;20156;-65
2021/11/10 12:27:21;;;;;;;28.33;11.82;;;12.60;99.90;;;;;;5066632;28;20637;-65
2021/11/10 12:29:54;;;;;;;24.70;12.82;;;13.20;99.90;;;;;;5066688;28;20161;-65
2021/11/10 12:32:22;;;;;;;22.85;12.18;;;13.40;99.90;;;;;;5066593;28;20180;-65
2021/11/10 12:34:51;;;;;;;26.40;12.30;;;13.60;99.90;;;;;;5067047;28;20161;-65
2021/11/10 12:37:29;;;;;;;26.10;13.18;;;13.10;99.90;;;;;;5066893;28;20192;-65
2021/11/10 12:40:04;;;;;;;19.98;12.40;;;13.10;99.90;;;;;;5066665;28;20177;-65
2021/11/10 12:43:09;;;;;;;18.98;9.75;;;13.50;99.90;;;;;;5065874;28;20168;-65